Time;durP1;ratioP1;P1;durP2;ratioP2;P2;SDS_P1;SDS_P2;PMS_P1;PMS_P2;Temp;Humidity;BMP_temperature;BMP_pressure;BME280_temperature;BME280_humidity;BME280_pressure;Samples;Min_cycle;Max_cycle;Signal;HPM_P1;HPM_P2
2023/10/28 00:00:16;;;;;;;0.40;0.40;;;;;;;7.59;100.00;97460.94;5018432;28;20037;-75
2023/10/28 00:02:42;;;;;;;0.40;0.40;;;;;;;7.63;100.00;97453.28;5033754;28;20038;-74
2023/10/28 00:05:07;;;;;;;0.38;0.38;;;;;;;7.58;100.00;97453.97;5016490;28;20064;-75
2023/10/28 00:07:33;;;;;;;0.30;0.30;;;;;;;7.56;100.00;97447.25;5035074;28;20026;-75
2023/10/28 00:09:59;;;;;;;0.32;0.32;;;;;;;7.60;100.00;97449.22;5017218;28;20397;-75
2023/10/28 00:12:24;;;;;;;0.30;0.30;;;;;;;7.57;100.00;97452.38;5001003;28;20064;-75
2023/10/28 00:14:50;;;;;;;0.32;0.32;;;;;;;7.47;100.00;97439.59;5034309;28;20029;-75
2023/10/28 00:17:17;;;;;;;0.30;0.30;;;;;;;7.51;100.00;97455.97;5035007;28;20033;-75
2023/10/28 00:19:44;;;;;;;0.40;0.40;;;;;;;7.56;100.00;97450.72;5000271;28;20044;-75
2023/10/28 00:22:10;;;;;;;0.40;0.40;;;;;;;7.62;100.00;97446.28;5033815;28;20033;-75
2023/10/28 00:24:36;;;;;;;0.40;0.40;;;;;;;7.58;100.00;97447.81;5017454;28;20108;-75
2023/10/28 00:27:01;;;;;;;0.40;0.40;;;;;;;7.60;100.00;97446.53;5016180;28;20025;-75
2023/10/28 00:29:27;;;;;;;0.40;0.40;;;;;;;7.59;100.00;97444.91;5033450;28;20935;-75
2023/10/28 00:31:53;;;;;;;0.40;0.40;;;;;;;7.57;100.00;97438.16;5033515;28;20423;-75
2023/10/28 00:34:19;;;;;;;0.30;0.30;;;;;;;7.52;100.00;97436.22;5032408;28;20037;-75
2023/10/28 00:36:44;;;;;;;0.40;0.40;;;;;;;7.50;100.00;97438.31;5034273;28;20075;-75
2023/10/28 00:39:11;;;;;;;0.30;0.30;;;;;;;7.41;100.00;97437.88;5017024;28;20053;-75
2023/10/28 00:41:37;;;;;;;0.30;0.30;;;;;;;7.43;100.00;97437.63;5017079;28;20029;-74
2023/10/28 00:44:04;;;;;;;0.40;0.40;;;;;;;7.40;100.00;97428.22;5034377;28;20067;-75
2023/10/28 00:46:30;;;;;;;0.40;0.40;;;;;;;7.40;100.00;97428.22;5001860;28;20044;-75
2023/10/28 00:48:56;;;;;;;0.40;0.40;;;;;;;7.40;100.00;97425.56;4983275;28;20042;-75
2023/10/28 00:51:22;;;;;;;0.40;0.40;;;;;;;7.25;100.00;97410.03;5033959;28;20037;-75
2023/10/28 00:53:47;;;;;;;0.40;0.40;;;;;;;7.20;100.00;97427.84;5032896;28;20032;-75
2023/10/28 00:56:13;;;;;;;0.40;0.40;;;;;;;7.16;100.00;97422.13;5032580;28;20468;-74
2023/10/28 00:58:40;;;;;;;0.40;0.40;;;;;;;7.22;100.00;97433.72;5017351;28;20032;-75
2023/10/28 01:01:10;;;;;;;0.40;0.40;;;;;;;7.15;100.00;97425.06;5017836;28;20391;-75
2023/10/28 01:03:36;;;;;;;0.40;0.40;;;;;;;7.11;100.00;97423.88;5017135;28;20037;-75
2023/10/28 01:06:02;;;;;;;0.40;0.40;;;;;;;7.05;100.00;97415.75;5000100;28;20361;-75
2023/10/28 01:08:28;;;;;;;0.40;0.40;;;;;;;7.09;100.00;97415.28;5032928;28;20022;-75
2023/10/28 01:10:59;;;;;;;0.40;0.40;;;;;;;7.05;100.00;97417.63;5015755;28;20041;-77
2023/10/28 01:13:25;;;;;;;0.40;0.40;;;;;;;6.96;100.00;97414.50;5033777;28;20147;-76
2023/10/28 01:15:50;;;;;;;0.30;0.30;;;;;;;6.88;100.00;97414.88;5000831;28;20132;-75
2023/10/28 01:18:16;;;;;;;0.40;0.40;;;;;;;6.81;100.00;97401.63;5032380;28;20026;-76
2023/10/28 01:20:42;;;;;;;0.40;0.40;;;;;;;6.82;100.00;97410.44;5032152;28;20064;-74
2023/10/28 01:23:08;;;;;;;0.40;0.40;;;;;;;6.82;100.00;97410.44;5015963;28;20040;-74
2023/10/28 01:25:34;;;;;;;0.40;0.40;;;;;;;6.80;100.00;97407.19;5033425;28;20037;-75
2023/10/28 01:27:59;;;;;;;0.40;0.40;;;;;;;6.79;100.00;97401.03;5031045;28;20361;-76
2023/10/28 01:30:25;;;;;;;0.40;0.40;;;;;;;6.88;100.00;97409.53;5014969;28;20041;-74
2023/10/28 01:32:52;;;;;;;0.40;0.40;;;;;;;6.89;100.00;97397.78;5014881;28;20045;-75
2023/10/28 01:35:18;;;;;;;0.40;0.40;;;;;;;6.96;100.00;97387.81;5026547;28;20044;-76
2023/10/28 01:37:44;;;;;;;0.40;0.40;;;;;;;7.02;100.00;97397.53;5033291;28;20029;-74
2023/10/28 01:40:13;;;;;;;0.30;0.30;;;;;;;7.09;100.00;97404.59;5014926;28;20044;-74
2023/10/28 01:42:40;;;;;;;0.40;0.40;;;;;;;7.09;100.00;97391.25;5032004;28;20120;-74
2023/10/28 01:45:10;;;;;;;0.40;0.40;;;;;;;7.06;100.00;97400.53;5016755;28;20484;-76
2023/10/28 01:47:41;;;;;;;0.40;0.40;;;;;;;6.99;100.00;97413.22;5032397;28;20025;-76
2023/10/28 01:50:07;;;;;;;0.32;0.32;;;;;;;6.98;100.00;97409.72;5013059;28;20026;-77
2023/10/28 01:52:33;;;;;;;0.30;0.30;;;;;;;7.06;100.00;97405.88;5015518;28;20494;-77
2023/10/28 01:54:59;;;;;;;0.40;0.40;;;;;;;7.13;100.00;97406.56;4999814;28;20548;-77
2023/10/28 01:57:24;;;;;;;0.40;0.40;;;;;;;7.19;100.00;97399.47;4999358;28;20061;-76
2023/10/28 01:59:52;;;;;;;0.40;0.40;;;;;;;7.23;100.00;97389.94;5034163;28;20041;-76
2023/10/28 02:02:18;;;;;;;0.40;0.40;;;;;;;7.22;100.00;97380.28;5015427;28;20037;-77
2023/10/28 02:04:44;;;;;;;0.32;0.32;;;;;;;7.35;100.00;97384.56;5007823;28;20034;-76
2023/10/28 02:07:09;;;;;;;0.40;0.40;;;;;;;7.40;100.00;97380.13;4997101;28;20118;-76
2023/10/28 02:09:35;;;;;;;0.30;0.30;;;;;;;7.42;100.00;97378.03;5011607;28;20463;-76
2023/10/28 02:12:10;;;;;;;0.40;0.40;;;;;;;7.37;100.00;97375.25;5031215;28;20040;-76
2023/10/28 02:14:46;;;;;;;0.40;0.40;;;;;;;7.42;100.00;97377.22;5017221;28;20026;-76
2023/10/28 02:17:12;;;;;;;0.30;0.30;;;;;;;7.39;100.00;97367.81;5015013;28;20029;-76
2023/10/28 02:19:39;;;;;;;0.40;0.40;;;;;;;7.45;100.00;97364.16;5014031;28;20047;-76
2023/10/28 02:22:04;;;;;;;0.40;0.40;;;;;;;7.48;100.00;97371.72;5000153;28;20037;-76
2023/10/28 02:24:30;;;;;;;0.40;0.40;;;;;;;7.47;100.00;97369.28;5031384;28;20086;-76
2023/10/28 02:26:55;;;;;;;0.30;0.30;;;;;;;7.41;100.00;97364.88;5015470;28;20049;-76
2023/10/28 02:29:22;;;;;;;0.40;0.40;;;;;;;7.46;100.00;97371.16;5032554;28;20055;-76
2023/10/28 02:31:48;;;;;;;0.40;0.40;;;;;;;7.51;100.00;97372.28;5034019;28;20610;-76
2023/10/28 02:34:15;;;;;;;0.30;0.30;;;;;;;7.57;100.00;97366.81;5029006;28;20036;-76
2023/10/28 02:36:41;;;;;;;0.40;0.40;;;;;;;7.64;100.00;97369.31;4998936;28;20495;-76
2023/10/28 02:39:07;;;;;;;0.40;0.40;;;;;;;7.76;100.00;97364.75;4988046;28;20037;-76
2023/10/28 02:41:33;;;;;;;0.30;0.30;;;;;;;7.82;100.00;97360.28;5021387;28;20037;-76
2023/10/28 02:43:59;;;;;;;0.30;0.30;;;;;;;7.81;100.00;97354.13;5021396;28;20029;-76
2023/10/28 02:46:25;;;;;;;0.40;0.40;;;;;;;7.78;100.00;97354.63;5006063;28;20399;-76
2023/10/28 02:48:53;;;;;;;0.40;0.40;;;;;;;7.74;100.00;97355.34;5004163;28;20037;-76
2023/10/28 02:51:19;;;;;;;0.30;0.30;;;;;;;7.60;100.00;97358.31;5038809;28;20041;-76
2023/10/28 02:53:45;;;;;;;0.30;0.30;;;;;;;7.50;100.00;97347.41;5021431;28;20364;-76
2023/10/28 02:56:11;;;;;;;0.40;0.40;;;;;;;7.47;100.00;97350.59;5023272;28;20037;-76
2023/10/28 02:58:38;;;;;;;0.38;0.38;;;;;;;7.46;100.00;97355.13;5038517;28;20361;-76
2023/10/28 03:01:12;;;;;;;0.40;0.40;;;;;;;7.51;100.00;97356.25;5021885;28;20034;-76
2023/10/28 03:03:39;;;;;;;0.40;0.40;;;;;;;7.49;100.00;97348.50;5021333;28;20033;-78
2023/10/28 03:06:04;;;;;;;0.40;0.40;;;;;;;7.51;100.00;97353.56;5038540;28;20040;-76
2023/10/28 03:08:30;;;;;;;0.35;0.35;;;;;;;7.46;100.00;97354.28;5005320;28;20026;-76
2023/10/28 03:10:55;;;;;;;0.40;0.40;;;;;;;7.43;100.00;97344.88;5005053;28;20430;-76
2023/10/28 03:13:23;;;;;;;0.30;0.30;;;;;;;7.42;100.00;97337.13;5006027;28;20037;-76
2023/10/28 03:15:49;;;;;;;0.40;0.40;;;;;;;7.39;100.00;97334.94;5022899;28;20033;-76
2023/10/28 03:18:15;;;;;;;0.40;0.40;;;;;;;7.39;100.00;97335.72;5037657;28;20383;-76
2023/10/28 03:20:40;;;;;;;0.40;0.40;;;;;;;7.39;100.00;97333.06;5020120;28;20041;-76
2023/10/28 03:23:06;;;;;;;0.40;0.40;;;;;;;7.29;100.00;97324.84;5021016;28;20040;-77
2023/10/28 03:25:32;;;;;;;0.40;0.40;;;;;;;7.25;100.00;97329.88;5022373;28;20048;-76
2023/10/28 03:28:00;;;;;;;0.40;0.40;;;;;;;7.19;100.00;97320.13;5019035;28;20468;-76
2023/10/28 03:30:26;;;;;;;0.40;0.40;;;;;;;7.15;100.00;97319.00;5022390;28;20033;-76
2023/10/28 03:32:52;;;;;;;0.40;0.40;;;;;;;7.15;100.00;97323.53;4988603;28;20033;-76
2023/10/28 03:35:18;;;;;;;0.40;0.40;;;;;;;7.14;100.00;97317.34;5020718;28;20040;-76
2023/10/28 03:37:44;;;;;;;0.40;0.40;;;;;;;7.10;100.00;97310.88;5003768;28;20040;-76
2023/10/28 03:40:10;;;;;;;0.40;0.40;;;;;;;7.09;100.00;97319.91;5020951;28;20464;-76
2023/10/28 03:42:36;;;;;;;0.32;0.32;;;;;;;6.97;100.00;97313.81;5037382;28;20102;-76
2023/10/28 03:45:08;;;;;;;0.40;0.40;;;;;;;6.91;100.00;97310.25;5021774;28;20491;-76
2023/10/28 03:47:34;;;;;;;0.40;0.40;;;;;;;6.91;100.00;97323.59;5005910;28;20044;-76
2023/10/28 03:50:00;;;;;;;0.40;0.40;;;;;;;6.87;100.00;97314.41;5017446;28;20026;-76
2023/10/28 03:52:26;;;;;;;0.40;0.40;;;;;;;6.97;100.00;97319.97;5019016;28;20041;-76
2023/10/28 03:54:52;;;;;;;0.40;0.40;;;;;;;6.98;100.00;97313.56;5017829;28;20052;-76
2023/10/28 03:57:18;;;;;;;0.43;0.43;;;;;;;6.98;100.00;97312.75;5017868;28;20468;-76
2023/10/28 03:59:46;;;;;;;0.40;0.40;;;;;;;7.06;100.00;97309.72;5035230;28;20034;-76
2023/10/28 04:02:12;;;;;;;0.40;0.40;;;;;;;7.08;100.00;97312.16;5018833;28;20075;-76
2023/10/28 04:04:37;;;;;;;0.50;0.50;;;;;;;7.11;100.00;97298.31;5033646;28;20112;-76
2023/10/28 04:07:04;;;;;;;0.40;0.40;;;;;;;7.17;100.00;97314.22;5018771;28;20087;-76
2023/10/28 04:09:33;;;;;;;0.40;0.40;;;;;;;7.21;100.00;97306.53;5033628;28;20025;-76
2023/10/28 04:12:00;;;;;;;0.40;0.40;;;;;;;7.20;100.00;97316.41;5000524;28;20067;-76
2023/10/28 04:14:26;;;;;;;0.45;0.45;;;;;;;7.20;100.00;97305.72;5018399;28;20033;-76
2023/10/28 04:16:51;;;;;;;0.40;0.40;;;;;;;7.16;100.00;97303.75;5018348;28;20403;-76
2023/10/28 04:19:17;;;;;;;0.47;0.47;;;;;;;7.14;100.00;97306.66;5032254;28;20029;-77
2023/10/28 04:21:43;;;;;;;0.40;0.40;;;;;;;7.07;100.00;97303.34;5002059;28;20033;-76
2023/10/28 04:24:10;;;;;;;0.40;0.40;;;;;;;6.99;100.00;97306.38;5017238;28;20048;-76
2023/10/28 04:26:36;;;;;;;0.40;0.40;;;;;;;6.93;100.00;97305.47;5033922;28;20033;-76
2023/10/28 04:29:03;;;;;;;0.40;0.40;;;;;;;6.82;100.00;97307.09;5035827;28;20029;-76
2023/10/28 04:31:30;;;;;;;0.40;0.40;;;;;;;6.70;100.00;97297.53;5018133;28;20034;-76
2023/10/28 04:33:56;;;;;;;0.40;0.40;;;;;;;6.59;100.00;97299.19;4983583;28;20437;-76
2023/10/28 04:36:22;;;;;;;0.40;0.40;;;;;;;6.81;100.00;97296.69;5018378;28;20033;-76
2023/10/28 04:38:47;;;;;;;0.40;0.40;;;;;;;6.86;100.00;97304.78;5033233;28;20030;-76
2023/10/28 04:41:13;;;;;;;0.40;0.40;;;;;;;6.87;100.00;97303.75;5001978;28;20175;-77
2023/10/28 04:43:39;;;;;;;0.40;0.40;;;;;;;6.85;100.00;97305.81;5034510;28;20456;-76
2023/10/28 04:46:05;;;;;;;0.40;0.40;;;;;;;6.86;100.00;97298.66;5017187;28;20036;-76
2023/10/28 04:48:32;;;;;;;0.50;0.50;;;;;;;6.98;100.00;97296.72;5013789;28;20030;-77
2023/10/28 04:50:58;;;;;;;0.40;0.40;;;;;;;7.12;100.00;97303.44;5000707;28;20029;-76
2023/10/28 04:53:23;;;;;;;0.40;0.40;;;;;;;7.18;100.00;97309.69;5033121;28;20029;-76
2023/10/28 04:55:49;;;;;;;0.40;0.40;;;;;;;7.23;100.00;97301.78;5031801;28;20045;-76
2023/10/28 04:58:17;;;;;;;0.40;0.40;;;;;;;7.30;100.00;97299.75;5017089;28;20502;-76
2023/10/28 05:00:43;;;;;;;0.35;0.35;;;;;;;7.23;100.00;97299.91;5017926;28;20037;-76
2023/10/28 05:03:09;;;;;;;0.40;0.40;;;;;;;7.30;100.00;97299.75;5032886;28;20030;-76
2023/10/28 05:05:34;;;;;;;0.40;0.40;;;;;;;7.45;100.00;97299.22;5032558;28;20068;-76
2023/10/28 05:08:01;;;;;;;0.40;0.40;;;;;;;7.59;100.00;97307.72;5034046;28;20108;-76
2023/10/28 05:10:26;;;;;;;0.40;0.40;;;;;;;7.69;100.00;97308.72;5001857;28;20132;-76
2023/10/28 05:12:54;;;;;;;0.40;0.40;;;;;;;7.72;100.00;97302.06;5016212;28;20049;-76
2023/10/28 05:15:20;;;;;;;0.40;0.40;;;;;;;7.71;100.00;97295.13;5032389;28;20028;-76
2023/10/28 05:17:45;;;;;;;0.40;0.40;;;;;;;7.64;100.00;97302.47;5000830;28;20029;-76
2023/10/28 05:20:12;;;;;;;0.40;0.40;;;;;;;7.55;100.00;97302.06;5014985;28;20041;-76
2023/10/28 05:22:39;;;;;;;0.30;0.30;;;;;;;7.39;100.00;97303.66;5014963;28;20030;-76
2023/10/28 05:25:07;;;;;;;0.40;0.40;;;;;;;7.30;100.00;97296.25;5015722;28;20119;-76
2023/10/28 05:27:35;;;;;;;0.40;0.40;;;;;;;7.17;100.00;97292.00;5032401;28;20061;-76
2023/10/28 05:30:05;;;;;;;0.40;0.40;;;;;;;7.10;100.00;97302.06;5033817;28;20091;-76
2023/10/28 05:32:30;;;;;;;0.40;0.40;;;;;;;7.15;100.00;97304.81;5032346;28;20029;-76
2023/10/28 05:34:56;;;;;;;0.40;0.40;;;;;;;7.18;100.00;97299.81;5014760;28;20369;-76
2023/10/28 05:37:22;;;;;;;0.40;0.40;;;;;;;7.36;100.00;97304.16;5016893;28;20037;-76
2023/10/28 05:39:49;;;;;;;0.40;0.40;;;;;;;7.37;100.00;97308.44;5014616;28;20063;-77
2023/10/28 05:42:15;;;;;;;0.40;0.40;;;;;;;7.45;100.00;97308.03;4999689;28;20075;-76
2023/10/28 05:44:41;;;;;;;0.40;0.40;;;;;;;7.44;100.00;97301.09;5032958;28;20033;-77
2023/10/28 05:47:07;;;;;;;0.40;0.40;;;;;;;7.51;100.00;97306.25;5033322;28;20036;-76
2023/10/28 05:49:33;;;;;;;0.40;0.40;;;;;;;7.51;100.00;97310.81;5014823;28;20487;-76
2023/10/28 05:51:59;;;;;;;0.40;0.40;;;;;;;7.44;100.00;97311.78;5016260;28;20052;-75
2023/10/28 05:54:25;;;;;;;0.40;0.40;;;;;;;7.37;100.00;97305.75;4998037;28;20033;-76
2023/10/28 05:56:50;;;;;;;0.40;0.40;;;;;;;7.36;100.00;97306.81;5015604;28;20029;-76
2023/10/28 05:59:16;;;;;;;0.40;0.40;;;;;;;7.45;100.00;97308.03;5016701;28;20041;-76
2023/10/28 06:01:42;;;;;;;0.40;0.40;;;;;;;7.57;100.00;97299.97;5016765;28;20487;-76
2023/10/28 06:04:08;;;;;;;0.40;0.40;;;;;;;7.64;100.00;97297.94;5011477;28;20041;-76
2023/10/28 06:06:33;;;;;;;0.40;0.40;;;;;;;7.77;100.00;97298.69;5015408;28;20037;-77
2023/10/28 06:09:00;;;;;;;0.40;0.40;;;;;;;7.97;100.00;97303.56;5031210;28;20172;-76
2023/10/28 06:11:26;;;;;;;0.40;0.40;;;;;;;8.12;100.00;97295.75;4999655;28;20050;-76
2023/10/28 06:13:52;;;;;;;0.30;0.30;;;;;;;8.19;100.00;97299.06;5030629;28;20040;-76
2023/10/28 06:16:21;;;;;;;0.32;0.32;;;;;;;8.22;100.00;97297.78;5016491;28;20091;-77
2023/10/28 06:18:47;;;;;;;0.40;0.40;;;;;;;8.26;100.00;97302.41;5012189;28;20037;-76
2023/10/28 06:21:14;;;;;;;0.30;0.30;;;;;;;8.26;100.00;97296.25;5013143;28;20490;-76
2023/10/28 06:23:40;;;;;;;0.40;0.40;;;;;;;8.35;100.00;97305.47;4999018;28;20037;-76
2023/10/28 06:26:07;;;;;;;0.40;0.40;;;;;;;8.34;100.00;97296.63;5015149;28;20035;-76
2023/10/28 06:28:39;;;;;;;0.30;0.30;;;;;;;8.38;100.00;97300.41;5032553;28;20049;-76
2023/10/28 06:31:05;;;;;;;0.40;0.40;;;;;;;8.45;100.00;97300.28;5032347;28;20071;-76
2023/10/28 06:33:32;;;;;;;0.30;0.30;;;;;;;8.51;100.00;97304.66;5029837;28;20480;-76
2023/10/28 06:35:58;;;;;;;0.30;0.30;;;;;;;8.57;100.00;97302.84;5030959;28;20464;-76
2023/10/28 06:38:26;;;;;;;0.30;0.30;;;;;;;8.61;100.00;97303.97;5031483;28;20114;-76
2023/10/28 06:40:51;;;;;;;0.32;0.32;;;;;;;8.61;100.00;97301.31;5031072;28;20025;-76
2023/10/28 06:43:22;;;;;;;0.40;0.40;;;;;;;8.63;100.00;97301.06;5014997;28;20033;-76
2023/10/28 06:45:49;;;;;;;0.40;0.40;;;;;;;8.55;100.00;97304.97;5033577;28;20036;-76
2023/10/28 06:48:15;;;;;;;0.40;0.40;;;;;;;8.61;100.00;97312.00;5028259;28;20115;-76
2023/10/28 06:50:41;;;;;;;0.40;0.40;;;;;;;8.58;100.00;97313.31;5029971;28;20038;-76
2023/10/28 06:53:09;;;;;;;0.40;0.40;;;;;;;8.55;100.00;97316.50;5018933;28;20039;-77
2023/10/28 06:55:34;;;;;;;0.45;0.45;;;;;;;8.45;100.00;97304.84;5021598;28;20034;-77
2023/10/28 06:58:00;;;;;;;0.30;0.30;;;;;;;8.41;100.00;97312.53;5025998;28;20045;-76
2023/10/28 07:00:28;;;;;;;0.40;0.40;;;;;;;8.31;100.00;97315.06;5032166;28;20036;-76
2023/10/28 07:02:55;;;;;;;0.40;0.40;;;;;;;8.19;100.00;97320.47;5028972;28;20038;-76
2023/10/28 07:05:21;;;;;;;0.30;0.30;;;;;;;8.07;100.00;97314.41;5029295;28;20029;-76
2023/10/28 07:07:47;;;;;;;0.40;0.40;;;;;;;7.97;100.00;97317.75;5003679;28;20440;-76
2023/10/28 07:10:14;;;;;;;0.30;0.30;;;;;;;7.87;100.00;97314.91;5013041;28;20121;-76
2023/10/28 07:12:41;;;;;;;0.40;0.40;;;;;;;7.87;100.00;97321.06;5015874;28;20091;-76
2023/10/28 07:15:09;;;;;;;0.40;0.40;;;;;;;7.81;100.00;97326.56;5032027;28;20103;-76
2023/10/28 07:17:38;;;;;;;0.30;0.30;;;;;;;7.83;100.00;97327.13;5030082;28;20036;-76
2023/10/28 07:20:04;;;;;;;0.32;0.32;;;;;;;7.87;100.00;97330.94;4997408;28;20530;-76
2023/10/28 07:22:31;;;;;;;0.30;0.30;;;;;;;7.86;100.00;97342.72;5013596;28;20091;-76
2023/10/28 07:24:57;;;;;;;0.43;0.43;;;;;;;7.76;100.00;97337.19;5015025;28;20033;-76
2023/10/28 07:27:23;;;;;;;0.40;0.40;;;;;;;7.70;100.00;97326.41;5017933;28;20028;-76
2023/10/28 07:29:48;;;;;;;0.40;0.40;;;;;;;7.67;100.00;97323.38;5019340;28;20049;-76
2023/10/28 07:32:14;;;;;;;0.40;0.40;;;;;;;7.56;100.00;97322.41;5019217;28;20029;-75
2023/10/28 07:34:40;;;;;;;0.40;0.40;;;;;;;7.55;100.00;97317.31;5018735;28;20033;-77
2023/10/28 07:37:06;;;;;;;0.40;0.40;;;;;;;7.49;100.00;97316.41;5019380;28;20040;-75
2023/10/28 07:39:32;;;;;;;0.40;0.40;;;;;;;7.47;100.00;97315.84;5035265;28;20112;-76
2023/10/28 07:41:58;;;;;;;0.40;0.40;;;;;;;7.55;100.00;97317.31;5002568;28;20121;-76
2023/10/28 07:44:23;;;;;;;0.50;0.50;;;;;;;7.58;100.00;97308.81;5035651;28;20057;-77
2023/10/28 07:46:49;;;;;;;0.40;0.40;;;;;;;7.53;100.00;97314.06;5019028;28;20044;-76
2023/10/28 07:49:15;;;;;;;0.40;0.40;;;;;;;7.52;100.00;97302.56;5035370;28;20487;-76
2023/10/28 07:51:41;;;;;;;0.40;0.40;;;;;;;7.70;100.00;97315.72;5002516;28;20037;-76
2023/10/28 07:54:07;;;;;;;0.50;0.50;;;;;;;7.87;100.00;97313.03;5035242;28;20102;-76
2023/10/28 07:56:33;;;;;;;0.40;0.40;;;;;;;7.86;100.00;97311.41;5035184;28;20112;-76
2023/10/28 07:59:02;;;;;;;0.40;0.40;;;;;;;7.95;100.00;97311.81;5002727;28;20037;-76
2023/10/28 08:01:29;;;;;;;0.40;0.40;;;;;;;7.98;100.00;97310.53;5019288;28;20040;-76
2023/10/28 08:03:55;;;;;;;0.50;0.50;;;;;;;8.16;100.00;97320.97;5035123;28;20034;-76
2023/10/28 08:06:21;;;;;;;0.40;0.40;;;;;;;8.18;100.00;97326.91;5001307;28;20037;-76
2023/10/28 08:08:47;;;;;;;0.30;0.30;;;;;;;8.25;100.00;97324.03;5034483;28;20034;-77
2023/10/28 08:11:13;;;;;;;0.40;0.40;;;;;;;8.32;100.00;97330.03;5017391;28;20036;-76
2023/10/28 08:13:40;;;;;;;0.40;0.40;;;;;;;8.44;100.00;97330.81;5034779;28;20036;-76
2023/10/28 08:16:12;;;;;;;0.50;0.50;;;;;;;8.55;100.00;97332.56;5034502;28;20030;-76
2023/10/28 08:18:40;;;;;;;0.40;0.40;;;;;;;8.66;100.00;97333.50;5002988;28;20463;-76
2023/10/28 08:21:07;;;;;;;0.40;0.40;;;;;;;8.80;100.00;97337.44;5002178;28;20476;-76
2023/10/28 08:23:32;;;;;;;0.30;0.30;;;;;;;8.98;100.00;97332.84;5016669;28;20048;-76
2023/10/28 08:25:59;;;;;;;0.38;0.38;;;;;;;9.16;100.00;97332.53;4999287;28;20052;-77
2023/10/28 08:28:26;;;;;;;0.40;0.40;;;;;;;9.32;100.00;97338.88;5000938;28;20049;-77
2023/10/28 08:30:52;;;;;;;0.40;0.40;;;;;;;9.47;100.00;97338.19;5014979;28;20076;-76
2023/10/28 08:33:20;;;;;;;0.40;0.40;;;;;;;9.82;100.00;97339.63;5014349;28;20041;-76
2023/10/28 08:35:47;;;;;;;0.45;0.45;;;;;;;10.06;100.00;97343.59;5030598;28;20133;-76
2023/10/28 08:38:16;;;;;;;0.47;0.47;;;;;;;10.17;100.00;97346.38;4981866;28;20034;-76
2023/10/28 08:40:50;;;;;;;0.50;0.50;;;;;;;10.56;100.00;97350.44;5023125;28;20048;-77
2023/10/28 08:43:17;;;;;;;0.50;0.50;;;;;;;10.98;100.00;97351.44;5032481;28;20026;-76
2023/10/28 08:45:44;;;;;;;0.40;0.40;;;;;;;11.56;100.00;97354.88;4997609;28;20559;-77
2023/10/28 08:48:12;;;;;;;0.40;0.40;;;;;;;11.76;100.00;97359.50;5033178;28;20033;-76
2023/10/28 08:50:41;;;;;;;0.50;0.50;;;;;;;11.16;100.00;97356.38;5017731;28;20036;-76
2023/10/28 08:53:08;;;;;;;0.40;0.40;;;;;;;11.10;100.00;97354.75;5002007;28;20060;-77
2023/10/28 08:55:37;;;;;;;0.40;0.40;;;;;;;11.19;100.00;97353.19;5034129;28;20029;-77
2023/10/28 08:58:06;;;;;;;0.45;0.45;;;;;;;11.50;100.00;97355.16;5034114;28;20037;-76
2023/10/28 09:00:50;;;;;;;0.40;0.40;;;;;;;11.51;100.00;97351.38;5018724;28;20029;-76
2023/10/28 09:03:16;;;;;;;0.47;0.47;;;;;;;11.61;100.00;97349.53;5033679;28;20101;-76
2023/10/28 09:05:42;;;;;;;0.40;0.40;;;;;;;11.34;100.00;97348.91;5001364;28;20087;-76
2023/10/28 09:08:09;;;;;;;0.40;0.40;;;;;;;10.94;100.00;97355.75;5033940;28;20033;-76
2023/10/28 09:10:37;;;;;;;0.40;0.40;;;;;;;11.06;100.00;97350.97;5033871;28;20372;-77
2023/10/28 09:13:07;;;;;;;0.40;0.40;;;;;;;11.08;100.00;97361.44;5017571;28;20033;-77
2023/10/28 09:15:34;;;;;;;0.50;0.50;;;;;;;11.26;100.00;97361.00;5033936;28;20033;-76
2023/10/28 09:18:01;;;;;;;0.40;0.40;;;;;;;11.69;100.00;97363.53;5033847;28;20468;-76
2023/10/28 09:20:29;;;;;;;0.40;0.40;;;;;;;11.34;100.00;97363.16;5033825;28;20104;-76
2023/10/28 09:22:55;;;;;;;0.40;0.40;;;;;;;11.86;100.00;97366.84;5033508;28;20529;-76
2023/10/28 09:25:24;;;;;;;0.30;0.30;;;;;;;11.34;100.00;97368.56;5050213;28;20036;-77
2023/10/28 09:27:50;;;;;;;0.55;0.55;;;;;;;11.39;100.00;97367.75;5017575;28;20033;-77
2023/10/28 09:30:17;;;;;;;0.40;0.40;;;;;;;11.53;100.00;97363.50;5017091;28;20392;-77
2023/10/28 09:32:43;;;;;;;0.50;0.50;;;;;;;11.76;100.00;97369.47;5001002;28;20033;-76
2023/10/28 09:35:11;;;;;;;0.60;0.60;;;;;;;13.04;100.00;97366.72;5033043;28;20037;-77
2023/10/28 09:37:40;;;;;;;0.50;0.50;;;;;;;13.76;100.00;97368.06;5033446;28;20598;-77
2023/10/28 09:40:08;;;;;;;0.50;0.50;;;;;;;14.14;100.00;97368.34;5017032;28;20064;-76
2023/10/28 09:42:36;;;;;;;0.50;0.50;;;;;;;13.75;100.00;97362.94;5033250;28;20033;-76
2023/10/28 09:45:06;;;;;;;0.50;0.50;;;;;;;14.18;100.00;97368.56;5000671;28;20071;-76
2023/10/28 09:48:02;;;;;;;0.52;0.52;;;;;;;14.12;100.00;97373.22;5015790;28;20124;-76
2023/10/28 09:50:33;;;;;;;0.43;0.43;;;;;;;13.42;100.00;97373.38;5017335;28;20030;-76
2023/10/28 09:52:58;;;;;;;0.40;0.40;;;;;;;12.91;100.00;97370.81;5016553;28;20041;-76
2023/10/28 09:55:35;;;;;;;0.40;0.40;;;;;;;12.42;100.00;97352.56;5033087;28;20042;-76
2023/10/28 09:58:09;;;;;;;0.50;0.50;;;;;;;12.71;100.00;97360.88;5016639;28;20033;-76
2023/10/28 10:00:37;;;;;;;0.40;0.40;;;;;;;12.94;100.00;97357.59;5016569;28;20026;-76
2023/10/28 10:03:12;;;;;;;0.30;0.30;;;;;;;12.55;100.00;97357.41;5000644;28;20108;-76
2023/10/28 10:05:45;;;;;;;0.50;0.50;;;;;;;12.98;100.00;97358.66;5016589;28;20072;-77
2023/10/28 10:08:23;;;;;;;0.40;0.40;;;;;;;13.33;100.00;97366.91;5031913;28;20033;-76
2023/10/28 10:10:53;;;;;;;0.40;0.40;;;;;;;13.14;100.00;97358.59;5030751;28;20029;-76
2023/10/28 10:13:18;;;;;;;0.43;0.43;;;;;;;12.37;100.00;97358.78;5014365;28;20029;-77
2023/10/28 10:16:05;;;;;;;0.40;0.40;;;;;;;12.50;100.00;97357.41;4998970;28;20025;-77
2023/10/28 10:18:39;;;;;;;0.35;0.35;;;;;;;12.42;100.00;97352.56;5000530;28;20384;-77
2023/10/28 10:21:09;;;;;;;0.40;0.40;;;;;;;11.99;100.00;97352.06;5032762;28;20021;-77
2023/10/28 10:23:41;;;;;;;0.30;0.30;;;;;;;11.63;100.00;97349.25;5000051;28;20048;-77
2023/10/28 10:26:06;;;;;;;0.38;0.38;;;;;;;11.47;100.00;97351.09;5000266;28;20079;-77
2023/10/28 10:28:32;;;;;;;0.95;0.95;;;;;;;11.49;100.00;97356.25;5016589;28;20052;-77
2023/10/28 10:31:08;;;;;;;0.30;0.30;;;;;;;11.59;100.00;97345.47;5033431;28;20396;-77
2023/10/28 10:33:39;;;;;;;0.50;0.50;;;;;;;11.74;100.00;97358.16;5017632;28;20033;-77
2023/10/28 10:36:16;;;;;;;0.40;0.40;;;;;;;11.90;100.00;97349.06;5015979;28;20072;-78
2023/10/28 10:38:43;;;;;;;0.47;0.47;;;;;;;12.04;100.00;97358.25;5016413;28;20484;-77
2023/10/28 10:41:24;;;;;;;0.55;0.55;;;;;;;12.39;100.00;97353.94;5016008;28;20048;-76
2023/10/28 10:43:50;;;;;;;0.50;0.50;;;;;;;13.07;100.00;97358.06;4999020;28;20550;-77
2023/10/28 10:46:15;;;;;;;0.60;0.60;;;;;;;13.80;100.00;97362.91;5014291;28;20041;-77
2023/10/28 10:48:44;;;;;;;0.50;0.50;;;;;;;14.88;100.00;97357.44;5015615;28;20025;-77
2023/10/28 10:51:10;;;;;;;0.40;0.40;;;;;;;15.26;100.00;97357.53;5032315;28;20087;-77
2023/10/28 10:53:45;;;;;;;0.60;0.60;;;;;;;15.79;100.00;97354.69;5032289;28;20039;-77
2023/10/28 10:56:20;;;;;;;0.60;0.60;;;;;;;15.93;100.00;97354.75;5013037;28;20045;-78
2023/10/28 10:58:46;;;;;;;0.40;0.40;;;;;;;15.99;100.00;97342.75;5006898;28;20117;-77
2023/10/28 11:01:12;;;;;;;0.50;0.50;;;;;;;16.12;100.00;97347.44;4984140;28;20038;-78
2023/10/28 11:03:39;;;;;;;0.32;0.32;;;;;;;15.80;100.00;97357.13;5016586;28;20048;-77
2023/10/28 11:06:06;;;;;;;0.60;0.60;;;;;;;15.57;100.00;97353.34;5013844;28;20030;-77
2023/10/28 11:08:31;;;;;;;0.50;0.50;;;;;;;15.79;100.00;97349.28;5018596;28;20477;-77
2023/10/28 11:10:57;;;;;;;0.50;0.50;;;;;;;15.88;100.00;97346.69;5017145;28;20037;-78
2023/10/28 11:13:23;;;;;;;0.50;0.50;;;;;;;15.89;100.00;97359.16;5002453;28;20037;-77
2023/10/28 11:15:49;;;;;;;0.45;0.45;;;;;;;15.80;100.00;97349.00;5035578;28;20033;-77
2023/10/28 11:18:15;;;;;;;0.40;0.40;;;;;;;15.56;100.00;97351.75;5069300;28;20025;-77
2023/10/28 11:20:42;;;;;;;0.50;0.50;;;;;;;15.22;100.00;97353.81;4987122;28;20069;-76
2023/10/28 11:23:08;;;;;;;0.40;0.40;;;;;;;15.03;100.00;97359.16;5019403;28;20147;-76
2023/10/28 11:25:35;;;;;;;0.40;0.40;;;;;;;14.99;100.00;97347.31;5019608;28;20072;-76
2023/10/28 11:28:10;;;;;;;0.40;0.40;;;;;;;14.76;100.00;97354.31;5003220;28;20068;-76
2023/10/28 11:30:37;;;;;;;0.40;0.40;;;;;;;14.81;100.00;97333.41;5003088;28;20033;-76